createdAt,value
2019-02-05T00:02:52.515Z,50.0
2019-02-05T00:19:39.613Z,50.4
2019-02-05T00:36:26.759Z,50.4
2019-02-05T00:53:14.164Z,50.4
2019-02-05T01:10:00.792Z,50.4
2019-02-05T01:26:47.696Z,50.4
2019-02-05T01:43:34.630Z,50.4
2019-02-05T02:00:21.397Z,50.4
2019-02-05T02:17:08.147Z,50.0
2019-02-05T02:33:54.774Z,50.0
2019-02-05T02:50:41.454Z,50.0
2019-02-05T03:07:28.092Z,50.0
2019-02-05T03:24:14.601Z,49.6
2019-02-05T03:41:01.256Z,49.6
2019-02-05T03:57:48.010Z,49.6
2019-02-05T04:14:34.356Z,49.6
2019-02-05T04:31:20.781Z,49.6
2019-02-05T04:48:07.147Z,49.2
2019-02-05T05:04:53.485Z,49.2
2019-02-05T05:21:39.624Z,49.2
2019-02-05T05:38:25.690Z,49.2
2019-02-05T05:55:11.822Z,49.2
2019-02-05T06:11:58.007Z,49.2
2019-02-05T06:28:44.126Z,49.2
2019-02-05T06:45:30.204Z,49.2
2019-02-05T07:02:16.348Z,49.2
2019-02-05T07:19:02.468Z,48.8
2019-02-05T07:35:48.429Z,50.0
2019-02-05T07:52:34.106Z,50.4
2019-02-05T08:09:19.721Z,51.2
2019-02-05T08:26:05.457Z,51.2
2019-02-05T08:42:51.581Z,51.2
2019-02-05T08:59:37.753Z,51.2
2019-02-05T09:16:23.922Z,50.0
2019-02-05T09:33:09.722Z,50.4
2019-02-05T09:49:55.777Z,50.0
2019-02-05T10:06:41.852Z,50.0
2019-02-05T10:23:27.892Z,50.0
2019-02-05T10:40:13.697Z,50.0
2019-02-05T10:56:59.682Z,50.0
2019-02-05T11:13:46.122Z,49.6
2019-02-05T11:30:32.428Z,49.2
2019-02-05T11:47:18.871Z,49.2
2019-02-05T12:04:05.090Z,49.2
2019-02-05T12:20:51.352Z,49.2
2019-02-05T12:37:37.440Z,48.8
2019-02-05T12:54:23.577Z,48.8
2019-02-05T13:11:09.634Z,48.8
2019-02-05T13:27:55.700Z,48.4
2019-02-05T13:44:41.705Z,48.4
2019-02-05T14:01:27.836Z,48.4
2019-02-05T14:18:14.051Z,48.0
2019-02-05T14:35:00.336Z,48.0
2019-02-05T14:51:46.466Z,47.2
2019-02-05T15:08:32.742Z,47.2
2019-02-05T15:25:18.947Z,47.2
2019-02-05T15:42:05.224Z,47.2
2019-02-05T15:58:51.600Z,47.2
2019-02-05T16:15:37.972Z,47.2
2019-02-05T16:32:24.345Z,47.2
2019-02-05T16:49:10.510Z,47.2
2019-02-05T17:05:56.491Z,47.2
2019-02-05T17:22:42.635Z,47.2
2019-02-05T17:39:28.597Z,47.2
2019-02-05T17:56:14.746Z,47.2
2019-02-05T18:13:01.328Z,47.6
2019-02-05T18:29:47.288Z,47.6
2019-02-05T18:46:33.825Z,47.2
2019-02-05T19:03:20.241Z,47.2
2019-02-05T19:20:06.745Z,47.2
2019-02-05T19:36:52.931Z,47.2
2019-02-05T19:53:39.238Z,47.2
2019-02-05T20:10:25.641Z,46.8
2019-02-05T20:27:11.825Z,46.8
2019-02-05T20:43:57.943Z,48.8
2019-02-05T21:00:43.974Z,49.2
2019-02-05T21:17:29.945Z,49.6
2019-02-05T21:34:16.357Z,49.6
2019-02-05T21:51:01.919Z,50.0
2019-02-05T22:07:47.930Z,50.0
2019-02-05T22:24:34.025Z,50.8
2019-02-05T22:41:20.001Z,50.0
2019-02-05T22:58:06.128Z,50.0
2019-02-05T23:14:52.111Z,50.0
2019-02-05T23:31:37.802Z,50.4
2019-02-05T23:48:23.476Z,50.4
